Time;durP1;ratioP1;P1;durP2;ratioP2;P2;SDS_P1;SDS_P2;PMS_P1;PMS_P2;Temp;Humidity;BMP_temperature;BMP_pressure;BME280_temperature;BME280_humidity;BME280_pressure;Samples;Min_cycle;Max_cycle;Signal;HPM_P1;HPM_P2
2020/12/19 00:00:16;;;;;;;936.73;787.13;;;2.40;99.90;;;;;;10292353;28;89019;-74
2020/12/19 00:05:18;;;;;;;894.83;771.73;;;2.50;99.90;;;;;;10304572;28;88265;-74
2020/12/19 00:10:20;;;;;;;985.73;791.80;;;2.50;99.90;;;;;;10278434;28;89756;-74
2020/12/19 00:15:22;;;;;;;1000.03;809.67;;;2.50;99.90;;;;;;10292066;28;88942;-73
2020/12/19 00:20:24;;;;;;;1027.87;802.03;;;2.60;99.90;;;;;;10290759;28;89981;-74
2020/12/19 00:25:26;;;;;;;928.87;796.97;;;2.60;99.90;;;;;;10291767;28;89581;-74
2020/12/19 00:30:27;;;;;;;910.47;782.10;;;2.70;99.90;;;;;;10291778;28;88705;-74
2020/12/19 00:35:32;;;;;;;935.87;790.63;;;2.70;99.90;;;;;;10269485;28;88990;-75
2020/12/19 00:40:34;;;;;;;891.87;724.37;;;2.70;99.90;;;;;;10290347;28;88784;-75
2020/12/19 00:45:36;;;;;;;829.47;720.77;;;2.80;99.90;;;;;;10267649;28;90833;-74
2020/12/19 00:50:40;;;;;;;612.47;417.30;;;2.70;99.90;;;;;;10291007;28;88982;-74
2020/12/19 00:55:42;;;;;;;561.17;420.20;;;2.80;99.90;;;;;;10290849;28;88280;-73
2020/12/19 01:00:44;;;;;;;328.53;163.60;;;2.90;99.90;;;;;;10291848;28;88934;-74
2020/12/19 01:05:46;;;;;;;308.70;140.77;;;2.90;99.90;;;;;;10291158;28;89004;-74
2020/12/19 01:10:48;;;;;;;228.33;114.53;;;2.80;99.90;;;;;;10295604;28;90024;-74
2020/12/19 01:15:50;;;;;;;232.70;99.60;;;2.80;99.90;;;;;;10288659;28;89894;-74
2020/12/19 01:20:55;;;;;;;199.63;107.33;;;2.80;99.90;;;;;;10316936;28;90035;-74
2020/12/19 01:26:02;;;;;;;220.97;113.30;;;2.90;99.90;;;;;;10286100;28;89031;-74
2020/12/19 01:31:04;;;;;;;341.67;206.83;;;3.00;99.90;;;;;;10290182;28;89114;-74
2020/12/19 01:36:10;;;;;;;907.27;795.73;;;2.90;99.90;;;;;;10290715;28;88988;-74
2020/12/19 01:41:14;;;;;;;985.70;809.37;;;2.90;99.90;;;;;;10288175;28;89230;-73
2020/12/19 01:46:27;;;;;;;905.80;752.27;;;2.80;99.90;;;;;;10288333;28;88411;-74
2020/12/19 01:51:32;;;;;;;936.50;800.40;;;2.70;99.90;;;;;;10284432;28;88961;-74
2020/12/19 01:56:50;;;;;;;350.57;217.10;;;2.60;99.90;;;;;;10287672;28;88901;-74
2020/12/19 02:01:53;;;;;;;601.37;425.97;;;2.60;99.90;;;;;;10283008;28;90370;-73
2020/12/19 02:06:57;;;;;;;405.43;244.93;;;2.60;99.90;;;;;;10287554;28;89003;-74
2020/12/19 02:11:59;;;;;;;600.80;435.30;;;2.60;99.90;;;;;;10290919;28;89117;-75
2020/12/19 02:17:02;;;;;;;833.73;679.47;;;2.60;99.90;;;;;;10287071;28;89365;-74
2020/12/19 02:22:08;;;;;;;863.03;708.83;;;2.50;99.90;;;;;;10286401;28;90415;-74
2020/12/19 02:27:11;;;;;;;728.60;566.03;;;2.50;99.90;;;;;;10292035;28;88069;-74
2020/12/19 02:32:12;;;;;;;510.07;343.83;;;2.40;99.90;;;;;;10286514;28;88982;-75
2020/12/19 02:37:14;;;;;;;202.33;104.30;;;2.20;99.90;;;;;;10286667;28;88890;-75
2020/12/19 02:42:16;;;;;;;380.30;214.97;;;2.20;99.90;;;;;;10288017;28;89150;-74
2020/12/19 02:47:18;;;;;;;436.17;239.13;;;2.10;99.90;;;;;;10285092;28;88979;-75
2020/12/19 02:52:20;;;;;;;51.77;19.60;;;2.10;99.90;;;;;;10267091;28;90189;-73
2020/12/19 02:57:23;;;;;;;74.40;35.57;;;2.20;99.90;;;;;;10267949;28;89039;-73
2020/12/19 03:02:27;;;;;;;153.80;83.03;;;2.20;99.90;;;;;;10277273;28;89824;-74
2020/12/19 03:07:28;;;;;;;345.70;179.33;;;2.30;99.90;;;;;;10278737;28;89247;-74
2020/12/19 03:12:31;;;;;;;420.13;266.00;;;2.30;99.90;;;;;;10292773;28;89566;-74
2020/12/19 03:17:33;;;;;;;766.30;621.33;;;2.10;99.90;;;;;;10293886;28;88675;-74
2020/12/19 03:22:34;;;;;;;867.13;716.33;;;2.00;99.90;;;;;;10288281;28;89493;-74
2020/12/19 03:27:37;;;;;;;873.57;751.60;;;1.80;99.90;;;;;;10291266;28;89163;-74
2020/12/19 03:32:41;;;;;;;875.97;749.77;;;1.70;99.90;;;;;;10291985;28;88820;-73
2020/12/19 03:37:42;;;;;;;867.73;707.53;;;1.70;99.90;;;;;;10296683;28;89348;-74
2020/12/19 03:42:45;;;;;;;677.70;503.33;;;1.70;99.90;;;;;;10292260;28;89965;-74
2020/12/19 03:47:47;;;;;;;905.50;771.87;;;1.70;99.90;;;;;;10289650;28;88983;-73
2020/12/19 03:52:49;;;;;;;896.20;764.37;;;1.60;99.90;;;;;;10293560;28;89147;-74
2020/12/19 03:57:51;;;;;;;466.37;332.57;;;1.50;99.90;;;;;;10293714;28;89131;-74
2020/12/19 04:02:53;;;;;;;442.47;278.10;;;1.40;99.90;;;;;;10290235;28;88595;-74
2020/12/19 04:07:55;;;;;;;314.83;172.80;;;1.30;99.90;;;;;;10294185;28;89632;-75
2020/12/19 04:12:57;;;;;;;361.30;221.90;;;1.30;99.90;;;;;;10287360;28;89033;-74
2020/12/19 04:17:59;;;;;;;396.20;225.60;;;1.40;99.90;;;;;;10289894;28;88281;-74
2020/12/19 04:23:00;;;;;;;349.47;202.53;;;1.30;99.90;;;;;;10288386;28;88906;-75
2020/12/19 04:28:03;;;;;;;485.43;293.73;;;1.30;99.90;;;;;;10289632;28;89129;-74
2020/12/19 04:33:05;;;;;;;570.47;381.40;;;1.30;99.90;;;;;;10287590;28;90430;-74
2020/12/19 04:38:06;;;;;;;540.63;362.57;;;1.40;99.90;;;;;;10288075;28;89084;-74
2020/12/19 04:43:17;;;;;;;659.53;487.67;;;1.50;99.90;;;;;;10284963;28;88748;-74
2020/12/19 04:48:19;;;;;;;647.00;461.33;;;1.60;99.90;;;;;;10287052;28;89662;-74
2020/12/19 04:53:22;;;;;;;738.23;606.13;;;1.60;99.90;;;;;;10287291;28;89253;-74
2020/12/19 04:58:24;;;;;;;779.87;619.87;;;1.60;99.90;;;;;;10286414;28;89966;-75
2020/12/19 05:03:26;;;;;;;818.47;690.23;;;1.50;99.90;;;;;;10285312;28;89333;-73
2020/12/19 05:08:28;;;;;;;936.43;778.57;;;1.60;99.90;;;;;;10287235;28;88208;-73
2020/12/19 05:13:31;;;;;;;975.27;794.20;;;1.60;99.90;;;;;;10266878;28;88878;-73
2020/12/19 05:18:35;;;;;;;731.40;568.83;;;1.60;99.90;;;;;;10285945;28;89901;-74
2020/12/19 05:23:39;;;;;;;882.33;701.53;;;1.60;99.90;;;;;;10284277;28;89910;-74
2020/12/19 05:28:43;;;;;;;575.53;402.80;;;1.70;99.90;;;;;;10286406;28;89034;-74
2020/12/19 05:33:45;;;;;;;797.97;620.93;;;1.70;99.90;;;;;;10285395;28;89770;-73
2020/12/19 05:38:47;;;;;;;914.50;756.10;;;1.80;99.90;;;;;;10286676;28;89361;-74
2020/12/19 05:43:50;;;;;;;867.67;704.70;;;1.80;99.90;;;;;;10297340;28;88848;-74
2020/12/19 05:48:52;;;;;;;533.07;344.70;;;1.70;99.90;;;;;;10293927;28;88918;-74
2020/12/19 05:53:59;;;;;;;608.10;396.43;;;1.60;99.90;;;;;;10285880;28;88979;-74
2020/12/19 05:59:03;;;;;;;668.67;472.70;;;1.50;99.90;;;;;;10285598;28;88388;-74
2020/12/19 06:04:07;;;;;;;690.43;505.33;;;1.40;99.90;;;;;;10285772;28;90072;-73
2020/12/19 06:09:10;;;;;;;932.10;784.70;;;1.40;99.90;;;;;;10321047;28;88915;-74
2020/12/19 06:14:23;;;;;;;1026.93;804.80;;;1.30;99.90;;;;;;10302621;28;90106;-74
2020/12/19 06:19:25;;;;;;;1032.40;807.27;;;1.20;99.90;;;;;;10287079;28;89483;-73
2020/12/19 06:24:44;;;;;;;939.03;787.87;;;1.20;99.90;;;;;;10287849;28;89029;-74
2020/12/19 06:29:46;;;;;;;919.83;739.83;;;1.10;99.90;;;;;;10291108;28;89426;-73
2020/12/19 06:34:58;;;;;;;994.73;798.03;;;1.20;99.90;;;;;;10287739;28;89136;-73
2020/12/19 06:40:14;;;;;;;981.13;794.00;;;1.10;99.90;;;;;;10289562;28;90349;-73
2020/12/19 06:45:26;;;;;;;962.70;729.53;;;1.30;99.90;;;;;;10300785;28;89037;-73
2020/12/19 06:50:56;;;;;;;815.00;656.53;;;1.30;99.90;;;;;;10296221;28;87336;-73
2020/12/19 06:55:58;;;;;;;874.80;722.10;;;1.30;99.90;;;;;;10299135;28;89131;-73
2020/12/19 07:01:01;;;;;;;746.23;655.93;;;1.30;99.90;;;;;;10294429;28;90340;-73
2020/12/19 07:06:14;;;;;;;712.87;512.60;;;1.30;99.90;;;;;;10295056;28;89877;-73
2020/12/19 07:11:42;;;;;;;869.83;710.23;;;1.30;99.90;;;;;;10291733;28;89075;-73
2020/12/19 07:16:52;;;;;;;915.13;750.73;;;1.20;99.90;;;;;;10295578;28;89118;-74
2020/12/19 07:21:55;;;;;;;960.80;795.07;;;1.10;99.90;;;;;;10291723;28;89334;-73
2020/12/19 07:26:57;;;;;;;896.93;792.80;;;1.10;99.90;;;;;;10311115;28;88741;-73
2020/12/19 07:32:02;;;;;;;912.63;799.67;;;1.00;99.90;;;;;;10292146;28;89010;-74
2020/12/19 07:37:04;;;;;;;874.50;770.87;;;0.90;99.90;;;;;;10290083;28;88852;-74
2020/12/19 07:42:08;;;;;;;848.27;756.20;;;0.90;99.90;;;;;;10289284;28;89447;-74
2020/12/19 07:47:12;;;;;;;864.97;745.83;;;1.00;99.90;;;;;;10294617;28;89627;-75
2020/12/19 07:52:16;;;;;;;915.90;792.67;;;1.00;99.90;;;;;;10292902;28;89087;-75
2020/12/19 07:57:18;;;;;;;707.80;591.30;;;1.00;99.90;;;;;;10291303;28;89791;-74
2020/12/19 08:02:21;;;;;;;910.17;782.20;;;1.10;99.90;;;;;;10289347;28;89430;-74
2020/12/19 08:07:25;;;;;;;305.47;168.27;;;1.10;99.90;;;;;;10292590;28;90342;-73
2020/12/19 08:12:28;;;;;;;839.70;674.80;;;1.10;99.90;;;;;;10294158;28;88952;-73
2020/12/19 08:17:36;;;;;;;898.33;779.77;;;1.10;99.90;;;;;;10291758;28;88890;-75
2020/12/19 08:22:38;;;;;;;699.27;582.60;;;1.30;99.90;;;;;;10292081;28;89122;-73
2020/12/19 08:27:45;;;;;;;483.57;303.73;;;1.40;99.90;;;;;;10291052;28;89243;-73
2020/12/19 08:32:50;;;;;;;566.67;409.40;;;1.50;99.90;;;;;;10304337;28;88156;-74
2020/12/19 08:38:00;;;;;;;736.53;573.43;;;1.50;99.90;;;;;;10289538;28;88952;-74
2020/12/19 08:43:02;;;;;;;650.70;513.67;;;1.60;99.90;;;;;;10290038;28;90147;-74
2020/12/19 08:48:06;;;;;;;785.83;684.37;;;1.70;99.90;;;;;;10288533;28;89791;-74
2020/12/19 08:53:15;;;;;;;663.87;551.83;;;1.80;99.90;;;;;;10314804;28;90893;-74
2020/12/19 08:58:24;;;;;;;553.90;392.80;;;1.80;99.90;;;;;;10292342;28;89998;-74
2020/12/19 09:03:29;;;;;;;895.80;743.03;;;1.90;99.90;;;;;;10310885;28;89788;-74
2020/12/19 09:08:36;;;;;;;677.77;500.83;;;1.90;99.90;;;;;;10289702;28;88923;-74
2020/12/19 09:13:38;;;;;;;76.13;42.80;;;2.20;99.90;;;;;;10290547;28;89058;-74
2020/12/19 09:18:40;;;;;;;217.13;126.37;;;2.20;99.90;;;;;;10319357;28;90020;-74
2020/12/19 09:23:42;;;;;;;347.33;225.20;;;2.20;99.90;;;;;;10291608;28;89113;-74
2020/12/19 09:28:44;;;;;;;283.90;155.50;;;2.20;99.90;;;;;;10291226;28;89013;-75
2020/12/19 09:33:46;;;;;;;661.43;460.63;;;2.30;99.90;;;;;;10291363;28;87755;-74
2020/12/19 09:38:48;;;;;;;794.63;613.53;;;2.30;99.90;;;;;;10288676;28;89844;-74
2020/12/19 09:43:50;;;;;;;842.77;689.27;;;2.40;99.90;;;;;;10290449;28;88906;-74
2020/12/19 09:48:55;;;;;;;803.53;613.97;;;2.40;99.90;;;;;;10291117;28;88860;-74
2020/12/19 09:53:56;;;;;;;824.60;651.33;;;2.50;99.90;;;;;;10286946;28;91191;-75
2020/12/19 09:58:58;;;;;;;469.20;311.33;;;2.40;99.90;;;;;;10290411;28;88948;-74
2020/12/19 10:04:00;;;;;;;547.87;408.20;;;2.50;99.90;;;;;;10288947;28;88969;-75
2020/12/19 10:09:02;;;;;;;125.70;64.97;;;2.50;99.90;;;;;;10299330;28;88916;-74
2020/12/19 10:14:04;;;;;;;150.93;71.80;;;2.50;99.90;;;;;;10306271;28;88891;-75
2020/12/19 10:19:06;;;;;;;203.00;104.47;;;2.70;99.90;;;;;;10295775;28;88902;-74
2020/12/19 10:24:08;;;;;;;708.10;573.70;;;2.60;99.90;;;;;;10294522;28;89161;-73
2020/12/19 10:29:09;;;;;;;790.57;693.70;;;2.70;99.90;;;;;;10294808;28;90070;-74
2020/12/19 10:34:12;;;;;;;551.80;384.30;;;2.70;99.90;;;;;;10292852;28;89066;-74
2020/12/19 10:39:14;;;;;;;265.23;150.73;;;2.70;99.90;;;;;;10277260;28;89568;-74
2020/12/19 10:44:15;;;;;;;348.87;216.37;;;2.70;99.90;;;;;;10321209;28;87707;-74
2020/12/19 10:49:18;;;;;;;311.50;174.37;;;2.80;99.90;;;;;;10295851;28;89687;-74
2020/12/19 10:54:20;;;;;;;280.17;151.93;;;2.80;99.90;;;;;;10295934;28;89138;-74
2020/12/19 10:59:21;;;;;;;707.50;509.80;;;2.80;99.90;;;;;;10295547;28;89003;-73
2020/12/19 11:04:24;;;;;;;873.57;670.00;;;3.00;99.90;;;;;;10303914;28;87780;-74
2020/12/19 11:09:26;;;;;;;337.93;182.77;;;3.10;99.90;;;;;;10297042;28;89272;-74
2020/12/19 11:14:29;;;;;;;591.63;411.33;;;3.10;99.90;;;;;;10274806;28;90400;-74
2020/12/19 11:19:31;;;;;;;426.07;271.20;;;3.20;99.90;;;;;;10294131;28;89823;-74
2020/12/19 11:24:33;;;;;;;36.73;19.23;;;3.20;99.90;;;;;;10293403;28;87663;-74
2020/12/19 11:29:35;;;;;;;20.70;8.63;;;3.20;99.90;;;;;;10301039;28;89182;-73
2020/12/19 11:34:37;;;;;;;21.63;8.33;;;3.20;99.90;;;;;;10294794;28;88835;-73
2020/12/19 11:39:39;;;;;;;214.83;122.50;;;3.30;99.90;;;;;;10296378;28;89187;-74
2020/12/19 11:44:40;;;;;;;171.70;87.23;;;3.30;99.90;;;;;;10275844;28;90636;-75
2020/12/19 11:49:43;;;;;;;259.43;127.33;;;3.20;99.90;;;;;;10295895;28;88953;-74
2020/12/19 11:54:45;;;;;;;413.90;234.73;;;3.30;99.90;;;;;;10295250;28;88525;-75
2020/12/19 11:59:46;;;;;;;706.80;506.30;;;3.30;99.90;;;;;;10295246;28;89995;-74
2020/12/19 12:04:49;;;;;;;337.40;185.97;;;3.20;99.90;;;;;;10280906;28;88810;-73
2020/12/19 12:09:50;;;;;;;403.60;203.50;;;3.20;99.90;;;;;;10292015;28;90242;-73
2020/12/19 12:14:52;;;;;;;262.43;140.57;;;3.10;99.90;;;;;;10291367;28;91665;-74
2020/12/19 12:19:55;;;;;;;89.33;36.83;;;3.10;99.90;;;;;;10291392;28;89309;-74
2020/12/19 12:24:56;;;;;;;88.80;45.23;;;3.20;99.90;;;;;;10292637;28;89225;-75
2020/12/19 12:29:58;;;;;;;143.77;57.80;;;3.10;99.90;;;;;;10292808;28;88004;-75
2020/12/19 12:35:01;;;;;;;104.43;50.03;;;3.00;99.90;;;;;;10301117;28;89114;-75
2020/12/19 12:40:03;;;;;;;168.77;72.67;;;2.90;99.90;;;;;;10291203;28;88845;-75
2020/12/19 12:45:05;;;;;;;229.10;109.70;;;2.80;99.90;;;;;;10292883;28;88172;-75
2020/12/19 12:50:09;;;;;;;129.27;46.97;;;2.90;99.90;;;;;;10299468;28;88906;-75
2020/12/19 12:55:11;;;;;;;200.07;82.93;;;2.80;99.90;;;;;;10294827;28;88870;-76
2020/12/19 13:00:12;;;;;;;208.60;106.27;;;2.70;99.90;;;;;;10291130;28;88587;-75
2020/12/19 13:05:15;;;;;;;98.77;49.03;;;2.80;99.90;;;;;;10291646;28;89189;-75
2020/12/19 13:10:20;;;;;;;13.77;8.17;;;2.80;99.90;;;;;;10293711;28;88777;-75
2020/12/19 13:15:22;;;;;;;22.27;11.20;;;2.70;99.90;;;;;;10273610;28;89576;-74
2020/12/19 13:20:24;;;;;;;35.40;16.73;;;2.80;99.90;;;;;;10292749;28;88976;-74
2020/12/19 13:25:26;;;;;;;29.60;19.50;;;2.70;99.90;;;;;;10292658;28;88717;-74
2020/12/19 13:30:30;;;;;;;99.20;46.00;;;2.60;99.90;;;;;;10289521;28;88926;-74
2020/12/19 13:35:33;;;;;;;679.23;481.93;;;2.70;99.90;;;;;;10291214;28;88309;-75
2020/12/19 13:40:34;;;;;;;789.93;586.17;;;2.70;99.90;;;;;;10297166;28;88944;-74
2020/12/19 13:45:37;;;;;;;674.47;460.50;;;2.60;99.90;;;;;;10293608;28;88779;-75
2020/12/19 13:50:39;;;;;;;871.20;678.23;;;2.50;99.90;;;;;;10288940;28;89834;-74
2020/12/19 13:55:41;;;;;;;775.03;565.23;;;2.50;99.90;;;;;;10301902;28;88891;-75
2020/12/19 14:00:43;;;;;;;914.43;735.27;;;2.60;99.90;;;;;;10290548;28;89236;-74
2020/12/19 14:05:48;;;;;;;811.80;601.93;;;2.50;99.90;;;;;;10289900;28;88897;-75
2020/12/19 14:10:50;;;;;;;871.17;644.27;;;2.60;99.90;;;;;;10290531;28;89045;-74
2020/12/19 14:15:51;;;;;;;755.73;540.93;;;2.60;99.90;;;;;;10309811;28;89163;-75
2020/12/19 14:20:54;;;;;;;888.00;713.53;;;2.60;99.90;;;;;;10287493;28;90285;-75
2020/12/19 14:25:55;;;;;;;615.70;428.70;;;2.50;99.90;;;;;;10288098;28;88410;-75
2020/12/19 14:30:58;;;;;;;761.63;547.53;;;2.70;99.90;;;;;;10277763;28;89041;-73
2020/12/19 14:36:01;;;;;;;784.97;607.03;;;2.70;99.90;;;;;;10279767;28;89119;-72
2020/12/19 14:41:03;;;;;;;821.33;624.47;;;2.80;99.90;;;;;;10279283;28;89774;-74
2020/12/19 14:46:05;;;;;;;700.37;493.97;;;2.90;99.90;;;;;;10282057;28;89024;-74
2020/12/19 14:51:10;;;;;;;669.93;502.93;;;3.00;99.90;;;;;;10284671;28;88529;-73
2020/12/19 14:56:13;;;;;;;390.97;260.53;;;3.10;99.90;;;;;;10285925;28;88972;-74
2020/12/19 15:01:15;;;;;;;146.77;71.17;;;3.10;99.90;;;;;;10286866;28;88923;-74
2020/12/19 15:06:17;;;;;;;194.67;87.73;;;3.10;99.90;;;;;;10295315;28;89106;-74
2020/12/19 15:11:20;;;;;;;618.70;416.47;;;3.10;99.90;;;;;;10315745;28;89001;-75
2020/12/19 15:16:22;;;;;;;311.50;169.67;;;3.00;99.90;;;;;;10290888;28;88399;-74
2020/12/19 15:21:24;;;;;;;265.97;133.90;;;3.00;99.90;;;;;;10290784;28;88777;-74
2020/12/19 15:26:26;;;;;;;354.27;197.13;;;3.00;99.90;;;;;;10292473;28;88735;-74
2020/12/19 15:31:28;;;;;;;546.07;360.37;;;3.00;99.90;;;;;;10290532;28;89759;-74
2020/12/19 15:36:30;;;;;;;519.60;306.43;;;3.00;99.90;;;;;;10290307;28;88966;-73
2020/12/19 15:41:32;;;;;;;520.13;342.23;;;3.00;99.90;;;;;;10289935;28;89196;-74
2020/12/19 15:46:34;;;;;;;331.03;177.93;;;3.00;99.90;;;;;;10291486;28;88921;-75
2020/12/19 15:51:36;;;;;;;699.13;521.03;;;3.00;99.90;;;;;;10287808;28;89850;-75
2020/12/19 15:56:38;;;;;;;863.47;681.10;;;3.00;99.90;;;;;;10289414;28;88576;-75
2020/12/19 16:01:41;;;;;;;750.63;544.70;;;3.00;99.90;;;;;;10285490;28;88979;-75
2020/12/19 16:06:44;;;;;;;638.47;420.47;;;3.00;99.90;;;;;;10290556;28;88203;-76
2020/12/19 16:11:49;;;;;;;536.33;316.07;;;3.00;99.90;;;;;;10291852;28;88946;-75
2020/12/19 16:16:51;;;;;;;664.40;441.43;;;3.00;99.90;;;;;;10287945;28;90177;-74
2020/12/19 16:21:55;;;;;;;663.57;450.43;;;3.10;99.90;;;;;;10288050;28;90154;-74
2020/12/19 16:26:57;;;;;;;591.40;470.53;;;3.10;99.90;;;;;;10291312;28;89027;-74
2020/12/19 16:31:59;;;;;;;951.53;777.80;;;3.00;99.90;;;;;;10287636;28;89127;-75
2020/12/19 16:37:05;;;;;;;481.73;299.77;;;3.10;99.90;;;;;;10288575;28;88779;-74
2020/12/19 16:42:07;;;;;;;32.93;13.90;;;3.00;99.90;;;;;;10290082;28;88714;-75
2020/12/19 16:47:08;;;;;;;21.50;10.80;;;3.10;99.90;;;;;;10289580;28;88863;-75
2020/12/19 16:52:13;;;;;;;25.63;11.37;;;3.10;99.90;;;;;;10286179;28;88894;-76
2020/12/19 16:57:15;;;;;;;27.00;11.37;;;3.10;99.90;;;;;;10287853;28;89235;-75
2020/12/19 17:02:17;;;;;;;16.13;7.60;;;3.10;99.90;;;;;;10280352;28;89272;-74
2020/12/19 17:07:19;;;;;;;20.97;10.43;;;3.10;99.90;;;;;;10288417;28;89839;-75
2020/12/19 17:12:21;;;;;;;38.53;15.70;;;3.20;99.90;;;;;;10289661;28;90054;-74
2020/12/19 17:17:22;;;;;;;26.33;15.30;;;3.20;99.90;;;;;;10295558;28;90736;-74
2020/12/19 17:22:26;;;;;;;34.00;18.10;;;3.20;99.90;;;;;;10287488;28;88153;-73
2020/12/19 17:27:27;;;;;;;62.03;31.50;;;3.20;99.90;;;;;;10300346;28;88825;-74
2020/12/19 17:32:29;;;;;;;252.37;170.33;;;3.20;99.90;;;;;;10289064;28;88916;-74
2020/12/19 17:37:34;;;;;;;62.37;31.70;;;3.20;99.90;;;;;;10302785;28;87873;-73
2020/12/19 17:42:36;;;;;;;670.77;470.33;;;3.20;99.90;;;;;;10336736;28;89109;-75
2020/12/19 17:47:41;;;;;;;567.53;357.07;;;3.10;99.90;;;;;;10328320;28;87096;-75
2020/12/19 17:52:43;;;;;;;785.70;583.07;;;3.10;99.90;;;;;;10341903;28;88140;-76
2020/12/19 17:57:45;;;;;;;898.80;700.60;;;3.00;99.90;;;;;;10335849;28;87983;-76
2020/12/19 18:02:47;;;;;;;437.43;253.27;;;3.00;99.90;;;;;;10338969;28;88865;-75
2020/12/19 18:07:49;;;;;;;549.83;341.10;;;3.00;99.90;;;;;;10331420;28;88800;-75
2020/12/19 18:12:51;;;;;;;43.20;26.43;;;2.90;99.90;;;;;;10329643;28;88968;-75
2020/12/19 18:17:53;;;;;;;314.83;222.53;;;2.90;99.90;;;;;;10335087;28;87086;-75
2020/12/19 18:22:55;;;;;;;650.57;497.17;;;2.80;99.90;;;;;;10344629;28;87452;-75
2020/12/19 18:27:57;;;;;;;767.33;577.67;;;2.80;99.90;;;;;;10343520;28;87540;-75
2020/12/19 18:32:58;;;;;;;895.83;782.67;;;2.70;99.90;;;;;;10341266;28;89757;-76
2020/12/19 18:38:04;;;;;;;680.57;478.90;;;2.60;99.90;;;;;;10332899;28;86867;-75
2020/12/19 18:43:06;;;;;;;857.07;683.53;;;2.70;99.90;;;;;;10347088;28;87731;-75
2020/12/19 18:48:08;;;;;;;913.40;735.67;;;2.60;99.90;;;;;;10343940;28;87616;-76
2020/12/19 18:53:10;;;;;;;363.57;190.03;;;2.70;99.90;;;;;;10347441;28;88386;-75
2020/12/19 18:58:12;;;;;;;923.57;722.23;;;2.70;99.90;;;;;;10334559;28;87623;-76
2020/12/19 19:03:16;;;;;;;994.13;785.80;;;2.60;99.90;;;;;;10346434;28;87119;-75
2020/12/19 19:08:19;;;;;;;1012.70;796.27;;;2.70;99.90;;;;;;10345000;28;89593;-75
2020/12/19 19:13:21;;;;;;;981.23;783.23;;;2.70;99.90;;;;;;10345103;28;87599;-74
2020/12/19 19:18:23;;;;;;;952.40;749.13;;;2.70;99.90;;;;;;10328555;28;89136;-75
2020/12/19 19:23:26;;;;;;;915.13;722.33;;;2.60;99.90;;;;;;10330568;28;87617;-76
2020/12/19 19:28:28;;;;;;;947.00;739.43;;;2.70;99.90;;;;;;10349365;28;86806;-76
2020/12/19 19:33:30;;;;;;;889.20;722.07;;;2.70;99.90;;;;;;10349259;28;87882;-77
2020/12/19 19:38:32;;;;;;;942.53;787.50;;;2.70;99.90;;;;;;10340290;28;87714;-76
2020/12/19 19:43:34;;;;;;;946.33;781.57;;;2.80;99.90;;;;;;10332261;28;88504;-75
2020/12/19 19:48:36;;;;;;;842.00;663.73;;;2.80;99.90;;;;;;10340448;28;88318;-75
2020/12/19 19:53:38;;;;;;;785.53;624.73;;;2.80;99.90;;;;;;10340612;28;87649;-75
2020/12/19 19:58:40;;;;;;;811.80;634.57;;;2.80;99.90;;;;;;10345968;28;89123;-75
2020/12/19 20:03:42;;;;;;;750.43;589.73;;;2.80;99.90;;;;;;10346293;28;87635;-75
2020/12/19 20:08:45;;;;;;;596.53;399.80;;;2.80;99.90;;;;;;10337966;28;87888;-74
2020/12/19 20:13:47;;;;;;;522.37;381.57;;;2.70;99.90;;;;;;10341278;28;87465;-75
2020/12/19 20:18:49;;;;;;;83.40;44.83;;;2.60;99.90;;;;;;10342351;28;86865;-74
2020/12/19 20:23:52;;;;;;;107.57;52.67;;;2.60;99.90;;;;;;10335471;28;87685;-75
2020/12/19 20:28:53;;;;;;;87.67;45.07;;;2.50;99.90;;;;;;10337853;28;88728;-76
2020/12/19 20:33:55;;;;;;;97.07;48.30;;;2.40;99.90;;;;;;10339469;28;88800;-74
2020/12/19 20:38:59;;;;;;;114.77;55.70;;;2.50;99.90;;;;;;10340176;28;87533;-74
2020/12/19 20:44:00;;;;;;;98.27;49.43;;;2.50;99.90;;;;;;10356123;28;88209;-74
2020/12/19 20:49:02;;;;;;;112.13;55.83;;;2.50;99.90;;;;;;10323708;28;89386;-73
2020/12/19 20:54:05;;;;;;;123.23;60.30;;;2.60;99.90;;;;;;10327524;28;87225;-74
2020/12/19 20:59:06;;;;;;;154.90;73.73;;;2.60;99.90;;;;;;10326393;28;89694;-74
2020/12/19 21:04:08;;;;;;;223.93;106.60;;;2.60;99.90;;;;;;10344249;28;88666;-76
2020/12/19 21:09:11;;;;;;;178.43;86.50;;;2.60;99.90;;;;;;10329657;28;87026;-76
2020/12/19 21:14:13;;;;;;;207.97;96.17;;;2.60;99.90;;;;;;10340105;28;88755;-77
2020/12/19 21:19:15;;;;;;;163.43;76.60;;;2.60;99.90;;;;;;10337885;28;88506;-76
2020/12/19 21:24:17;;;;;;;272.63;134.73;;;2.60;99.90;;;;;;10337068;28;88555;-76
2020/12/19 21:29:19;;;;;;;444.27;250.80;;;2.70;99.90;;;;;;10339555;28;88968;-76
2020/12/19 21:34:21;;;;;;;381.63;217.47;;;2.70;99.90;;;;;;10340364;28;87925;-75
2020/12/19 21:39:26;;;;;;;329.07;170.23;;;2.70;99.90;;;;;;10337540;28;87543;-76
2020/12/19 21:44:28;;;;;;;261.33;132.10;;;2.80;99.90;;;;;;10333164;28;87783;-77
2020/12/19 21:49:29;;;;;;;170.87;84.30;;;2.70;99.90;;;;;;10336701;28;87830;-78
2020/12/19 21:54:32;;;;;;;165.33;82.80;;;2.70;99.90;;;;;;10337465;28;89534;-76
2020/12/19 21:59:33;;;;;;;156.03;78.57;;;2.70;99.90;;;;;;10334308;28;88057;-75
2020/12/19 22:04:35;;;;;;;171.23;80.30;;;2.50;99.90;;;;;;10333976;28;87852;-76
2020/12/19 22:09:38;;;;;;;195.00;93.03;;;2.50;99.90;;;;;;10336837;28;88705;-76
2020/12/19 22:14:39;;;;;;;182.87;87.40;;;2.40;99.90;;;;;;10336938;28;89100;-76
2020/12/19 22:19:43;;;;;;;185.03;87.57;;;2.40;99.90;;;;;;10339989;28;88237;-77
2020/12/19 22:24:45;;;;;;;189.37;96.13;;;2.40;99.90;;;;;;10340867;28;88693;-77
2020/12/19 22:29:47;;;;;;;323.40;169.20;;;2.30;99.90;;;;;;10336903;28;87569;-76
2020/12/19 22:34:49;;;;;;;380.13;216.93;;;2.30;99.90;;;;;;10338155;28;88747;-77
2020/12/19 22:39:51;;;;;;;371.30;175.80;;;2.30;99.90;;;;;;10334493;28;89655;-76
2020/12/19 22:44:55;;;;;;;393.67;160.23;;;2.30;99.90;;;;;;10332470;28;89313;-76
2020/12/19 22:49:57;;;;;;;365.90;180.77;;;2.20;99.90;;;;;;10340650;28;88067;-77
2020/12/19 22:54:59;;;;;;;361.87;168.30;;;2.20;99.90;;;;;;10344114;28;88139;-77
2020/12/19 23:00:01;;;;;;;310.47;144.30;;;2.30;99.90;;;;;;10356204;28;88623;-72
2020/12/19 23:05:03;;;;;;;338.27;161.57;;;2.30;99.90;;;;;;10335919;28;89887;-72
2020/12/19 23:10:05;;;;;;;367.03;214.40;;;2.30;99.90;;;;;;10347628;28;87787;-71
2020/12/19 23:15:07;;;;;;;347.73;175.10;;;2.30;99.90;;;;;;10376821;28;88163;-71
2020/12/19 23:20:10;;;;;;;355.97;171.93;;;2.40;99.90;;;;;;10376280;28;87528;-72
2020/12/19 23:25:13;;;;;;;372.77;212.87;;;2.40;99.90;;;;;;10349270;28;87580;-72
2020/12/19 23:30:15;;;;;;;387.50;224.10;;;2.40;99.90;;;;;;10356574;28;87717;-71
2020/12/19 23:35:17;;;;;;;421.77;232.63;;;2.40;99.90;;;;;;10364440;28;90257;-72
2020/12/19 23:40:19;;;;;;;557.33;361.27;;;2.50;99.90;;;;;;10363193;28;86743;-71
2020/12/19 23:45:21;;;;;;;532.20;352.90;;;2.40;99.90;;;;;;10344561;28;88843;-72
2020/12/19 23:50:23;;;;;;;540.83;357.60;;;2.40;99.90;;;;;;10345861;28;87782;-71
2020/12/19 23:55:26;;;;;;;609.50;411.97;;;2.50;99.90;;;;;;10336076;28;89668;-72
